^^
Grace C. Lehan Memorial Weather Station Historical Data
Daily Summary for January 24, 2022 Units:  Both    English   Metric
Daily Weekly Monthly Yearly
  High: Low: Average:
Temperature: 33.3 °F /  0.7 °C 25.6 °F /  -3.6 °C 29.1 °F /  -1.6 °C
Dew Point: 26.2 °F /  -3.2 °C 16.7 °F /  -8.5 °C 20.9 °F /  -6.2 °C
Humidity: 90% 54.3% 72%
Wind Speed: 4.4mph /  7.1km/h - 0.5mph /  0.8km/h
Wind Gust: 11mph /  17.7km/h - -
Wind- - WSW
Pressure: 29.94 in /  1013.8 hPa 29.76 in /  1007.7 hPa -
Precipitation: 0.00 in /  0 mm    
 
 
Tabular Data for January 24, 2022
Time Temperature Dew Point Pressure Wind Wind Speed Wind Gust Humidity Rainfall Rate (Hourly) solar
00:04 29 °F /  -1.7 °C 25.1 °F /  -3.8 °C 29.77in /  1008hPa Calm     85% 0.00in /  0mm 0 W/m2
00:09 28.9 °F /  -1.7 °C 25 °F /  -3.9 °C 29.77in /  1008hPa Calm     85% 0.00in /  0mm 0 W/m2
00:14 28.8 °F /  -1.8 °C 24.9 °F /  -3.9 °C 29.76in /  1007.7hPa Calm     85% 0.00in /  0mm 0 W/m2
00:19 28.8 °F /  -1.8 °C 24.9 °F /  -3.9 °C 29.76in /  1007.7hPa Calm     85% 0.00in /  0mm 0 W/m2
00:24 28.7 °F /  -1.8 °C 24.8 °F /  -4 °C 29.77in /  1008hPa Calm     85% 0.00in /  0mm 0 W/m2
00:29 28.6 °F /  -1.9 °C 24.7 °F /  -4.1 °C 29.76in /  1007.7hPa Calm     85% 0.00in /  0mm 0 W/m2
00:34 28.6 °F /  -1.9 °C 24.6 °F /  -4.1 °C 29.76in /  1007.7hPa Calm     85% 0.00in /  0mm 0 W/m2
00:39 28.5 °F /  -1.9 °C 24.6 °F /  -4.1 °C 29.76in /  1007.7hPa Calm     85% 0.00in /  0mm 0 W/m2
00:44 28.5 °F /  -1.9 °C 24.6 °F /  -4.1 °C 29.76in /  1007.7hPa Calm     85% 0.00in /  0mm 0 W/m2
00:49 28.4 °F /  -2 °C 24.5 °F /  -4.2 °C 29.76in /  1007.7hPa Calm     85% 0.00in /  0mm 0 W/m2
00:54 28.4 °F /  -2 °C 24.5 °F /  -4.2 °C 29.76in /  1007.7hPa Calm     85% 0.00in /  0mm 0 W/m2
00:59 28.4 °F /  -2 °C 24.5 °F /  -4.2 °C 29.76in /  1007.7hPa Calm     85% 0.00in /  0mm 0 W/m2
01:04 28.4 °F /  -2 °C 24.5 °F /  -4.2 °C 29.76in /  1007.7hPa Calm     85% 0.00in /  0mm 0 W/m2
01:09 28.4 °F /  -2 °C 24.5 °F /  -4.2 °C 29.76in /  1007.7hPa Calm     85% 0.00in /  0mm 0 W/m2
01:14 28.4 °F /  -2 °C 24.5 °F /  -4.2 °C 29.76in /  1007.7hPa Calm     85% 0.00in /  0mm 0 W/m2
01:32 28 °F /  -2.2 °C 24.1 °F /  -4.4 °C 29.76in /  1007.7hPa Calm     85% 0.00in /  0mm 0 W/m2
03:09 26.3 °F /  -3.2 °C 23 °F /  -5 °C 29.78in /  1008.4hPa Calm     87% 0.00in /  0mm 0 W/m2
03:14 26.2 °F /  -3.2 °C 22.9 °F /  -5.1 °C 29.79in /  1008.7hPa Calm     87% 0.00in /  0mm 0 W/m2
03:19 26.1 °F /  -3.3 °C 22.8 °F /  -5.1 °C 29.79in /  1008.7hPa Calm     87% 0.00in /  0mm 0 W/m2
03:24 26 °F /  -3.3 °C 22.6 °F /  -5.2 °C 29.79in /  1008.7hPa Calm     87% 0.00in /  0mm 0 W/m2
03:29 25.9 °F /  -3.4 °C 22.5 °F /  -5.3 °C 29.79in /  1008.7hPa Calm     87% 0.00in /  0mm 0 W/m2
03:32 25.8 °F /  -3.4 °C 22.5 °F /  -5.3 °C 29.79in /  1008.7hPa Calm     87% 0.00in /  0mm 0 W/m2
04:05 25.9 °F /  -3.4 °C 23.1 °F /  -4.9 °C 29.80in /  1009hPa Calm     89% 0.00in /  0mm 0 W/m2
04:13 25.9 °F /  -3.4 °C 23.1 °F /  -4.9 °C 29.80in /  1009hPa Calm     89% 0.00in /  0mm 0 W/m2
04:19 26 °F /  -3.3 °C 23.2 °F /  -4.9 °C 29.81in /  1009.4hPa Calm     89% 0.00in /  0mm 0 W/m2
04:24 26 °F /  -3.3 °C 23.2 °F /  -4.9 °C 29.80in /  1009hPa Calm     89% 0.00in /  0mm 0 W/m2
04:29 26 °F /  -3.3 °C 23.2 °F /  -4.9 °C 29.81in /  1009.4hPa Calm     89% 0.00in /  0mm 0 W/m2
04:34 26 °F /  -3.3 °C 23.2 °F /  -4.9 °C 29.81in /  1009.4hPa Calm     89% 0.00in /  0mm 0 W/m2
04:39 26.1 °F /  -3.3 °C 23.3 °F /  -4.8 °C 29.81in /  1009.4hPa Calm     89% 0.00in /  0mm 0 W/m2
04:44 26.1 °F /  -3.3 °C 23.4 °F /  -4.8 °C 29.81in /  1009.4hPa Calm     89.3% 0.00in /  0mm 0 W/m2
04:49 26.1 °F /  -3.3 °C 23.6 °F /  -4.7 °C 29.81in /  1009.4hPa Calm     90% 0.00in /  0mm 0 W/m2
04:54 26.1 °F /  -3.3 °C 23.6 °F /  -4.7 °C 29.82in /  1009.7hPa Calm     90% 0.00in /  0mm 0 W/m2
04:59 26.1 °F /  -3.3 °C 23.6 °F /  -4.7 °C 29.82in /  1009.7hPa Calm     90% 0.00in /  0mm 0 W/m2
05:04 26.1 °F /  -3.3 °C 23.6 °F /  -4.7 °C 29.82in /  1009.7hPa Calm     90% 0.00in /  0mm 0 W/m2
05:09 26.1 °F /  -3.3 °C 23.6 °F /  -4.7 °C 29.82in /  1009.7hPa Calm     90% 0.00in /  0mm 0 W/m2
05:14 26.1 °F /  -3.3 °C 23.4 °F /  -4.8 °C 29.82in /  1009.7hPa Calm     89.4% 0.00in /  0mm 0 W/m2
05:19 26.2 °F /  -3.2 °C 23.4 °F /  -4.8 °C 29.83in /  1010hPa WSW 0.4mph /  0.6km/h 4mph /  6.4km/h 89% 0.00in /  0mm 0 W/m2
05:24 26.2 °F /  -3.2 °C 23.4 °F /  -4.8 °C 29.83in /  1010hPa Calm   4mph /  6.4km/h 89% 0.00in /  0mm 0 W/m2
05:29 26.2 °F /  -3.2 °C 23.4 °F /  -4.8 °C 29.83in /  1010hPa West 0.2mph /  0.3km/h 4mph /  6.4km/h 89% 0.00in /  0mm 0 W/m2
05:34 26.2 °F /  -3.2 °C 23.4 °F /  -4.8 °C 29.83in /  1010hPa Calm   4mph /  6.4km/h 89% 0.00in /  0mm 0 W/m2
05:39 26.2 °F /  -3.2 °C 23.2 °F /  -4.9 °C 29.83in /  1010hPa Calm     88.2% 0.00in /  0mm 0 W/m2
05:44 26.3 °F /  -3.2 °C 23.2 °F /  -4.9 °C 29.84in /  1010.4hPa Calm     88% 0.00in /  0mm 0 W/m2
05:49 26.3 °F /  -3.2 °C 23.2 °F /  -4.9 °C 29.84in /  1010.4hPa West 0.2mph /  0.3km/h 2mph /  3.2km/h 88% 0.00in /  0mm 0 W/m2
05:54 26.3 °F /  -3.2 °C 23.2 °F /  -4.9 °C 29.84in /  1010.4hPa West 0.4mph /  0.6km/h 3mph /  4.8km/h 88% 0.00in /  0mm 0 W/m2
05:59 26.3 °F /  -3.2 °C 23.2 °F /  -4.9 °C 29.84in /  1010.4hPa Calm   3mph /  4.8km/h 88% 0.00in /  0mm 0 W/m2
06:04 26.3 °F /  -3.2 °C 23 °F /  -5 °C 29.84in /  1010.4hPa West 1.3mph /  2.1km/h 5mph /  8km/h 87.2% 0.00in /  0mm 0 W/m2
06:09 26.3 °F /  -3.2 °C 23 °F /  -5 °C 29.85in /  1010.7hPa WNW 1.1mph /  1.8km/h 5mph /  8km/h 87% 0.00in /  0mm 0 W/m2
06:14 26.3 °F /  -3.2 °C 22.9 °F /  -5.1 °C 29.85in /  1010.7hPa NW 1mph /  1.6km/h 5mph /  8km/h 86.7% 0.00in /  0mm 0 W/m2
06:19 26.4 °F /  -3.1 °C 22.8 °F /  -5.1 °C 29.86in /  1011.1hPa NW 0.4mph /  0.6km/h 5mph /  8km/h 86% 0.00in /  0mm 0 W/m2
06:24 26.4 °F /  -3.1 °C 22.8 °F /  -5.1 °C 29.86in /  1011.1hPa NW 0.4mph /  0.6km/h 5mph /  8km/h 86% 0.00in /  0mm 0 W/m2
06:29 26.4 °F /  -3.1 °C 22.6 °F /  -5.2 °C 29.86in /  1011.1hPa NW 1.9mph /  3.1km/h 5mph /  8km/h 85.5% 0.00in /  0mm 0 W/m2
06:34 26.4 °F /  -3.1 °C 22.5 °F /  -5.3 °C 29.86in /  1011.1hPa NW 0.3mph /  0.5km/h 5mph /  8km/h 85% 0.00in /  0mm 0 W/m2
06:39 26.3 °F /  -3.2 °C 22.4 °F /  -5.3 °C 29.87in /  1011.4hPa NW 2.1mph /  3.4km/h 6mph /  9.7km/h 84.9% 0.00in /  0mm 0 W/m2
06:44 26.3 °F /  -3.2 °C 22.1 °F /  -5.5 °C 29.87in /  1011.4hPa NW 1.9mph /  3.1km/h 9mph /  14.5km/h 84% 0.00in /  0mm 0 W/m2
06:49 26.3 °F /  -3.2 °C 22 °F /  -5.6 °C 29.87in /  1011.4hPa NNW 1.9mph /  3.1km/h 9mph /  14.5km/h 83.6% 0.00in /  0mm 0 W/m2
06:54 26.3 °F /  -3.2 °C 21.8 °F /  -5.7 °C 29.87in /  1011.4hPa NNW 1.2mph /  1.9km/h 9mph /  14.5km/h 82.9% 0.00in /  0mm 0 W/m2
06:59 26.3 °F /  -3.2 °C 21.6 °F /  -5.8 °C 29.87in /  1011.4hPa NW 2.3mph /  3.7km/h 9mph /  14.5km/h 82% 0.00in /  0mm 0 W/m2
07:04 26.2 °F /  -3.2 °C 21.3 °F /  -5.9 °C 29.87in /  1011.4hPa NW 2.7mph /  4.3km/h 11mph /  17.7km/h 81.5% 0.00in /  0mm 0 W/m2
07:09 26.1 °F /  -3.3 °C 21 °F /  -6.1 °C 29.88in /  1011.7hPa NNW 3.8mph /  6.1km/h 11mph /  17.7km/h 80.5% 0.00in /  0mm 0 W/m2
07:14 26 °F /  -3.3 °C 20.4 °F /  -6.4 °C 29.88in /  1011.7hPa NNW 3.5mph /  5.6km/h 11mph /  17.7km/h 79.2% 0.00in /  0mm 0 W/m2
07:19 25.8 °F /  -3.4 °C 19.9 °F /  -6.7 °C 29.88in /  1011.7hPa NNW 2.5mph /  4km/h 11mph /  17.7km/h 78% 0.00in /  0mm 7 W/m2
07:24 25.7 °F /  -3.5 °C 19.7 °F /  -6.8 °C 29.88in /  1011.7hPa NNW 2.2mph /  3.5km/h 11mph /  17.7km/h 77.6% 0.00in /  0mm 14 W/m2
07:29 25.7 °F /  -3.5 °C 19.5 °F /  -6.9 °C 29.89in /  1012.1hPa NNW 2.7mph /  4.3km/h 11mph /  17.7km/h 77% 0.00in /  0mm 25 W/m2
07:34 25.6 °F /  -3.6 °C 19.2 °F /  -7.1 °C 29.89in /  1012.1hPa NNW 3.2mph /  5.1km/h 11mph /  17.7km/h 76.1% 0.00in /  0mm 37 W/m2
07:39 25.6 °F /  -3.6 °C 18.9 °F /  -7.3 °C 29.89in /  1012.1hPa NNW 1.3mph /  2.1km/h 7mph /  11.3km/h 75.3% 0.00in /  0mm 58 W/m2
07:44 25.7 °F /  -3.5 °C 19.2 °F /  -7.1 °C 29.89in /  1012.1hPa NW 2mph /  3.2km/h 7mph /  11.3km/h 75.8% 0.00in /  0mm 63 W/m2
07:49 25.9 °F /  -3.4 °C 19.1 °F /  -7.2 °C 29.90in /  1012.4hPa NW 2.1mph /  3.4km/h 7mph /  11.3km/h 75% 0.00in /  0mm 76 W/m2
07:54 26.1 °F /  -3.3 °C 19.3 °F /  -7.1 °C 29.90in /  1012.4hPa NW 1mph /  1.6km/h 7mph /  11.3km/h 75% 0.00in /  0mm 76 W/m2
07:59 26.3 °F /  -3.2 °C 19.4 °F /  -7 °C 29.90in /  1012.4hPa WNW 1.2mph /  1.9km/h 7mph /  11.3km/h 74.9% 0.00in /  0mm 84 W/m2
08:00 26.3 °F /  -3.2 °C 19.2 °F /  -7.1 °C 29.90in /  1012.4hPa Calm   7mph /  11.3km/h 74% 0.00in /  0mm 84 W/m2
08:09 26.5 °F /  -3.1 °C 19.4 °F /  -7 °C 29.90in /  1012.4hPa WNW 1.9mph /  3.1km/h 5mph /  8km/h 74% 0.00in /  0mm 100 W/m2
08:14 26.6 °F /  -3 °C 19.3 °F /  -7.1 °C 29.90in /  1012.4hPa WNW 2.9mph /  4.7km/h 10mph /  16.1km/h 73.5% 0.00in /  0mm 100 W/m2
08:19 26.6 °F /  -3 °C 19.1 °F /  -7.2 °C 29.91in /  1012.8hPa NNW 1.2mph /  1.9km/h 10mph /  16.1km/h 72.8% 0.00in /  0mm 102 W/m2
08:24 26.6 °F /  -3 °C 19.1 °F /  -7.2 °C 29.91in /  1012.8hPa NW 3.2mph /  5.1km/h 11mph /  17.7km/h 73% 0.00in /  0mm 134 W/m2
08:29 26.6 °F /  -3 °C 18.7 °F /  -7.4 °C 29.91in /  1012.8hPa NW 3mph /  4.8km/h 11mph /  17.7km/h 71.7% 0.00in /  0mm 109 W/m2
08:34 26.4 °F /  -3.1 °C 18.3 °F /  -7.6 °C 29.91in /  1012.8hPa NW 4.3mph /  6.9km/h 11mph /  17.7km/h 71% 0.00in /  0mm 104 W/m2
08:39 26.2 °F /  -3.2 °C 18.1 °F /  -7.7 °C 29.91in /  1012.8hPa NW 3.3mph /  5.3km/h 11mph /  17.7km/h 71% 0.00in /  0mm 102 W/m2
08:44 26.2 °F /  -3.2 °C 18.1 °F /  -7.7 °C 29.91in /  1012.8hPa NW 4.4mph /  7.1km/h 11mph /  17.7km/h 71% 0.00in /  0mm 105 W/m2
08:49 26.1 °F /  -3.3 °C 18 °F /  -7.8 °C 29.92in /  1013.1hPa NW 0.7mph /  1.1km/h 11mph /  17.7km/h 71% 0.00in /  0mm 116 W/m2
08:54 26.1 °F /  -3.3 °C 18 °F /  -7.8 °C 29.92in /  1013.1hPa NW 2.5mph /  4km/h 11mph /  17.7km/h 71% 0.00in /  0mm 116 W/m2
08:59 26.1 °F /  -3.3 °C 18 °F /  -7.8 °C 29.92in /  1013.1hPa NW 1.5mph /  2.4km/h 11mph /  17.7km/h 71% 0.00in /  0mm 118 W/m2
09:04 26.1 °F /  -3.3 °C 17.9 °F /  -7.8 °C 29.92in /  1013.1hPa NNW 1.2mph /  1.9km/h 11mph /  17.7km/h 70.5% 0.00in /  0mm 123 W/m2
09:09 26.2 °F /  -3.2 °C 17.8 °F /  -7.9 °C 29.92in /  1013.1hPa NW 2.9mph /  4.7km/h 9mph /  14.5km/h 70% 0.00in /  0mm 139 W/m2
09:14 26.3 °F /  -3.2 °C 17.5 °F /  -8.1 °C 29.92in /  1013.1hPa NW 2mph /  3.2km/h 9mph /  14.5km/h 68.9% 0.00in /  0mm 146 W/m2
09:19 26.4 °F /  -3.1 °C 17.6 °F /  -8 °C 29.93in /  1013.4hPa NW 1.4mph /  2.3km/h 9mph /  14.5km/h 69% 0.00in /  0mm 148 W/m2
09:24 26.5 °F /  -3.1 °C 17.4 °F /  -8.1 °C 29.93in /  1013.4hPa NNW 1.6mph /  2.6km/h 9mph /  14.5km/h 68.2% 0.00in /  0mm 128 W/m2
09:29 26.5 °F /  -3.1 °C 17.4 °F /  -8.1 °C 29.93in /  1013.4hPa NNW 0.3mph /  0.5km/h 9mph /  14.5km/h 68% 0.00in /  0mm 128 W/m2
09:34 26.5 °F /  -3.1 °C 17.2 °F /  -8.2 °C 29.93in /  1013.4hPa North 0.8mph /  1.3km/h 9mph /  14.5km/h 67.4% 0.00in /  0mm 118 W/m2
09:39 26.3 °F /  -3.2 °C 16.7 °F /  -8.5 °C 29.93in /  1013.4hPa North 0.3mph /  0.5km/h 5mph /  8km/h 66.5% 0.00in /  0mm 130 W/m2
09:44 26.2 °F /  -3.2 °C 16.9 °F /  -8.4 °C 29.93in /  1013.4hPa North 0.4mph /  0.6km/h 5mph /  8km/h 67.4% 0.00in /  0mm 134 W/m2
09:49 26.3 °F /  -3.2 °C 17.1 °F /  -8.3 °C 29.93in /  1013.4hPa NNW 0.9mph /  1.4km/h 5mph /  8km/h 67.7% 0.00in /  0mm 134 W/m2
09:54 26.5 °F /  -3.1 °C 17.2 °F /  -8.2 °C 29.93in /  1013.4hPa NNW 1.6mph /  2.6km/h 5mph /  8km/h 67.7% 0.00in /  0mm 156 W/m2
09:59 26.6 °F /  -3 °C 17.1 °F /  -8.3 °C 29.93in /  1013.4hPa NNW 1.2mph /  1.9km/h 5mph /  8km/h 67% 0.00in /  0mm 181 W/m2
10:04 26.8 °F /  -2.9 °C 17 °F /  -8.3 °C 29.93in /  1013.4hPa NNW 0.4mph /  0.6km/h 5mph /  8km/h 66.2% 0.00in /  0mm 174 W/m2
10:09 26.9 °F /  -2.8 °C 17.1 °F /  -8.3 °C 29.93in /  1013.4hPa NNW 1.2mph /  1.9km/h 6mph /  9.7km/h 66% 0.00in /  0mm 174 W/m2
10:14 27.1 °F /  -2.7 °C 17.2 °F /  -8.2 °C 29.93in /  1013.4hPa NNW 1.6mph /  2.6km/h 7mph /  11.3km/h 65.9% 0.00in /  0mm 151 W/m2
10:19 27.2 °F /  -2.7 °C 17.3 °F /  -8.2 °C 29.93in /  1013.4hPa NNW 1.9mph /  3.1km/h 7mph /  11.3km/h 65.9% 0.00in /  0mm 169 W/m2
10:24 27.3 °F /  -2.6 °C 17.2 °F /  -8.2 °C 29.93in /  1013.4hPa NNW 2.2mph /  3.5km/h 7mph /  11.3km/h 65.1% 0.00in /  0mm 176 W/m2
10:29 27.4 °F /  -2.6 °C 17.1 °F /  -8.3 °C 29.94in /  1013.8hPa NNW 1.3mph /  2.1km/h 7mph /  11.3km/h 64.8% 0.00in /  0mm 229 W/m2
10:34 27.4 °F /  -2.6 °C 17.1 °F /  -8.3 °C 29.94in /  1013.8hPa NNW 1.5mph /  2.4km/h 7mph /  11.3km/h 64.7% 0.00in /  0mm 262 W/m2
10:39 27.6 °F /  -2.4 °C 17.2 °F /  -8.2 °C 29.94in /  1013.8hPa NNW 1.2mph /  1.9km/h 6mph /  9.7km/h 64.3% 0.00in /  0mm 304 W/m2
10:44 28 °F /  -2.2 °C 17.9 °F /  -7.8 °C 29.93in /  1013.4hPa NNW 2mph /  3.2km/h 6mph /  9.7km/h 65.4% 0.00in /  0mm 383 W/m2
10:49 28.5 °F /  -1.9 °C 17.9 °F /  -7.8 °C 29.94in /  1013.8hPa NNW 0.9mph /  1.4km/h 6mph /  9.7km/h 63.9% 0.00in /  0mm 536 W/m2
10:54 29.1 °F /  -1.6 °C 18.2 °F /  -7.7 °C 29.94in /  1013.8hPa NNW 1mph /  1.6km/h 6mph /  9.7km/h 63.4% 0.00in /  0mm 448 W/m2
10:59 29.8 °F /  -1.2 °C 18.6 °F /  -7.4 °C 29.93in /  1013.4hPa NNW 0.3mph /  0.5km/h 6mph /  9.7km/h 62.8% 0.00in /  0mm 339 W/m2
11:04 30.3 °F /  -0.9 °C 18.9 °F /  -7.3 °C 29.92in /  1013.1hPa NNW 0.8mph /  1.3km/h 6mph /  9.7km/h 62.2% 0.00in /  0mm 383 W/m2
11:09 30.8 °F /  -0.7 °C 18.9 °F /  -7.3 °C 29.92in /  1013.1hPa NNW 0.1mph /  0.2km/h 3mph /  4.8km/h 61% 0.00in /  0mm 271 W/m2
11:14 30.8 °F /  -0.7 °C 18.2 °F /  -7.7 °C 29.92in /  1013.1hPa NNW 0.1mph /  0.2km/h 3mph /  4.8km/h 59% 0.00in /  0mm 188 W/m2
11:19 30.4 °F /  -0.9 °C 17.8 °F /  -7.9 °C 29.92in /  1013.1hPa North 1.4mph /  2.3km/h 6mph /  9.7km/h 59% 0.00in /  0mm 218 W/m2
11:24 30.1 °F /  -1.1 °C 18 °F /  -7.8 °C 29.92in /  1013.1hPa NNE 0.6mph /  1km/h 6mph /  9.7km/h 60.1% 0.00in /  0mm 297 W/m2
11:29 30.2 °F /  -1 °C 18.3 °F /  -7.6 °C 29.92in /  1013.1hPa North 1mph /  1.6km/h 6mph /  9.7km/h 60.9% 0.00in /  0mm 207 W/m2
11:34 30.5 °F /  -0.8 °C 18.6 °F /  -7.4 °C 29.91in /  1012.8hPa NW 2mph /  3.2km/h 10mph /  16.1km/h 60.7% 0.00in /  0mm 438 W/m2
11:39 30.7 °F /  -0.7 °C 18.5 °F /  -7.5 °C 29.90in /  1012.4hPa NW 0.3mph /  0.5km/h 10mph /  16.1km/h 60% 0.00in /  0mm 413 W/m2
11:44 30.7 °F /  -0.7 °C 17.9 °F /  -7.8 °C 29.90in /  1012.4hPa NNW 0.8mph /  1.3km/h 10mph /  16.1km/h 58.5% 0.00in /  0mm 127 W/m2
11:49 30.7 °F /  -0.7 °C 18.2 °F /  -7.7 °C 29.90in /  1012.4hPa NE 1.5mph /  2.4km/h 10mph /  16.1km/h 59.3% 0.00in /  0mm 237 W/m2
11:54 30.6 °F /  -0.8 °C 17.7 °F /  -7.9 °C 29.89in /  1012.1hPa ENE 1.6mph /  2.6km/h 10mph /  16.1km/h 58.4% 0.00in /  0mm 234 W/m2
11:59 30.1 °F /  -1.1 °C 17 °F /  -8.3 °C 29.88in /  1011.7hPa ENE 0.3mph /  0.5km/h 10mph /  16.1km/h 57.6% 0.00in /  0mm 330 W/m2
12:00 30 °F /  -1.1 °C 17 °F /  -8.3 °C 29.88in /  1011.7hPa Calm   10mph /  16.1km/h 58% 0.00in /  0mm 330 W/m2
12:09 30.1 °F /  -1.1 °C 18.4 °F /  -7.6 °C 29.88in /  1011.7hPa NE 0.4mph /  0.6km/h 4mph /  6.4km/h 61.2% 0.00in /  0mm 225 W/m2
12:14 30.5 °F /  -0.8 °C 18.4 °F /  -7.6 °C 29.88in /  1011.7hPa NE 0.6mph /  1km/h 4mph /  6.4km/h 60.4% 0.00in /  0mm 225 W/m2
12:19 30.7 °F /  -0.7 °C 18.4 °F /  -7.6 °C 29.88in /  1011.7hPa NE 0.8mph /  1.3km/h 4mph /  6.4km/h 59.7% 0.00in /  0mm 114 W/m2
12:24 30.9 °F /  -0.6 °C 18.3 °F /  -7.6 °C 29.88in /  1011.7hPa NE 0.3mph /  0.5km/h 4mph /  6.4km/h 59% 0.00in /  0mm 255 W/m2
12:29 30.9 °F /  -0.6 °C 18.1 °F /  -7.7 °C 29.88in /  1011.7hPa NE 0.5mph /  0.8km/h 4mph /  6.4km/h 58.4% 0.00in /  0mm 315 W/m2
12:34 31 °F /  -0.6 °C 18.3 °F /  -7.6 °C 29.88in /  1011.7hPa Calm   4mph /  6.4km/h 58.8% 0.00in /  0mm 236 W/m2
12:39 31.2 °F /  -0.4 °C 18.3 °F /  -7.6 °C 29.87in /  1011.4hPa Calm     58.4% 0.00in /  0mm 113 W/m2
12:44 31.2 °F /  -0.4 °C 17.8 °F /  -7.9 °C 29.87in /  1011.4hPa NE 0.1mph /  0.2km/h 2mph /  3.2km/h 57.1% 0.00in /  0mm 264 W/m2
12:49 31.1 °F /  -0.5 °C 17.7 °F /  -7.9 °C 29.87in /  1011.4hPa NE 1.7mph /  2.7km/h 5mph /  8km/h 57% 0.00in /  0mm 264 W/m2
12:54 31.1 °F /  -0.5 °C 17.7 °F /  -7.9 °C 29.86in /  1011.1hPa NE 0.4mph /  0.6km/h 5mph /  8km/h 57.1% 0.00in /  0mm 237 W/m2
12:59 31.1 °F /  -0.5 °C 17.8 °F /  -7.9 °C 29.86in /  1011.1hPa NE 0.6mph /  1km/h 5mph /  8km/h 57.5% 0.00in /  0mm 148 W/m2
13:04 31 °F /  -0.6 °C 18 °F /  -7.8 °C 29.86in /  1011.1hPa North 0.8mph /  1.3km/h 5mph /  8km/h 58.1% 0.00in /  0mm 114 W/m2
13:09 31.1 °F /  -0.5 °C 18.4 °F /  -7.6 °C 29.86in /  1011.1hPa NW 0.4mph /  0.6km/h 4mph /  6.4km/h 58.7% 0.00in /  0mm 98 W/m2
13:14 31.3 °F /  -0.4 °C 18.3 °F /  -7.6 °C 29.86in /  1011.1hPa NW 0.8mph /  1.3km/h 4mph /  6.4km/h 58.1% 0.00in /  0mm 292 W/m2
13:19 31.2 °F /  -0.4 °C 17.7 °F /  -7.9 °C 29.86in /  1011.1hPa Calm   4mph /  6.4km/h 57% 0.00in /  0mm 162 W/m2
13:24 31.1 °F /  -0.5 °C 17.9 °F /  -7.8 °C 29.86in /  1011.1hPa Calm   4mph /  6.4km/h 57.5% 0.00in /  0mm 318 W/m2
13:29 31.2 °F /  -0.4 °C 18.1 °F /  -7.7 °C 29.86in /  1011.1hPa NW 0.3mph /  0.5km/h 4mph /  6.4km/h 57.8% 0.00in /  0mm 299 W/m2
13:34 31.5 °F /  -0.3 °C 18.5 °F /  -7.5 °C 29.86in /  1011.1hPa NW 0.3mph /  0.5km/h 4mph /  6.4km/h 58% 0.00in /  0mm 211 W/m2
13:39 31.9 °F /  -0.1 °C 18.3 °F /  -7.6 °C 29.86in /  1011.1hPa NW 0.1mph /  0.2km/h 2mph /  3.2km/h 56.6% 0.00in /  0mm 97 W/m2
13:44 31.9 °F /  -0.1 °C 17.9 °F /  -7.8 °C 29.86in /  1011.1hPa Calm   2mph /  3.2km/h 55.8% 0.00in /  0mm 279 W/m2
13:49 31.7 °F /  -0.2 °C 18 °F /  -7.8 °C 29.86in /  1011.1hPa NW 0.4mph /  0.6km/h 3mph /  4.8km/h 56.5% 0.00in /  0mm 188 W/m2
13:54 31.8 °F /  -0.1 °C 18.3 °F /  -7.6 °C 29.86in /  1011.1hPa WNW 0.6mph /  1km/h 3mph /  4.8km/h 57.1% 0.00in /  0mm 309 W/m2
13:59 32 °F /  0 °C 18.8 °F /  -7.3 °C 29.86in /  1011.1hPa Calm   3mph /  4.8km/h 57.7% 0.00in /  0mm 281 W/m2
14:04 32.1 °F /  0.1 °C 18.3 °F /  -7.6 °C 29.86in /  1011.1hPa Calm   3mph /  4.8km/h 56.3% 0.00in /  0mm 234 W/m2
14:09 32.2 °F /  0.1 °C 18.5 °F /  -7.5 °C 29.86in /  1011.1hPa WNW 0.3mph /  0.5km/h 2mph /  3.2km/h 56.7% 0.00in /  0mm 223 W/m2
14:14 32.4 °F /  0.2 °C 18.7 °F /  -7.4 °C 29.86in /  1011.1hPa WNW 0.1mph /  0.2km/h 2mph /  3.2km/h 56.4% 0.00in /  0mm 237 W/m2
14:19 32.8 °F /  0.4 °C 19.2 °F /  -7.1 °C 29.87in /  1011.4hPa WNW 0.2mph /  0.3km/h 2mph /  3.2km/h 56.8% 0.00in /  0mm 237 W/m2
14:24 33.3 °F /  0.7 °C 19.2 °F /  -7.1 °C 29.87in /  1011.4hPa WNW 0.4mph /  0.6km/h 3mph /  4.8km/h 55.7% 0.00in /  0mm 107 W/m2
14:29 33.3 °F /  0.7 °C 18.6 °F /  -7.4 °C 29.87in /  1011.4hPa WNW 0.1mph /  0.2km/h 3mph /  4.8km/h 54.3% 0.00in /  0mm 114 W/m2
14:34 32.9 °F /  0.5 °C 18.6 °F /  -7.4 °C 29.86in /  1011.1hPa WNW 0.3mph /  0.5km/h 3mph /  4.8km/h 55.3% 0.00in /  0mm 141 W/m2
14:39 32.6 °F /  0.3 °C 18.6 °F /  -7.4 °C 29.86in /  1011.1hPa Calm   2mph /  3.2km/h 56% 0.00in /  0mm 60 W/m2
14:44 32.3 °F /  0.2 °C 18.4 °F /  -7.6 °C 29.84in /  1010.4hPa SSW 0.4mph /  0.6km/h 4mph /  6.4km/h 56.1% 0.00in /  0mm 72 W/m2
14:49 32.1 °F /  0.1 °C 18.3 °F /  -7.6 °C 29.83in /  1010hPa SSE 0.3mph /  0.5km/h 4mph /  6.4km/h 56.3% 0.00in /  0mm 128 W/m2
14:54 31.9 °F /  -0.1 °C 18.4 °F /  -7.6 °C 29.83in /  1010hPa Calm   4mph /  6.4km/h 57% 0.00in /  0mm 132 W/m2
14:59 31.8 °F /  -0.1 °C 18.4 °F /  -7.6 °C 29.83in /  1010hPa SE 0.5mph /  0.8km/h 4mph /  6.4km/h 57% 0.00in /  0mm 62 W/m2
15:04 31.7 °F /  -0.2 °C 18.3 °F /  -7.6 °C 29.83in /  1010hPa SE 0.2mph /  0.3km/h 4mph /  6.4km/h 57.2% 0.00in /  0mm 37 W/m2
15:09 31.7 °F /  -0.2 °C 18.6 °F /  -7.4 °C 29.83in /  1010hPa Calm   3mph /  4.8km/h 57.8% 0.00in /  0mm 37 W/m2
15:14 31.7 °F /  -0.2 °C 18.6 °F /  -7.4 °C 29.83in /  1010hPa SE 0.2mph /  0.3km/h 3mph /  4.8km/h 58% 0.00in /  0mm 35 W/m2
15:19 31.6 °F /  -0.2 °C 18.5 °F /  -7.5 °C 29.83in /  1010hPa SE 0.2mph /  0.3km/h 3mph /  4.8km/h 58% 0.00in /  0mm 33 W/m2
15:24 31.6 °F /  -0.2 °C 18.5 °F /  -7.5 °C 29.83in /  1010hPa SE 0.1mph /  0.2km/h 3mph /  4.8km/h 58% 0.00in /  0mm 32 W/m2
15:29 31.6 °F /  -0.2 °C 18.6 °F /  -7.4 °C 29.83in /  1010hPa SSE 0.3mph /  0.5km/h 3mph /  4.8km/h 58.3% 0.00in /  0mm 32 W/m2
15:34 31.6 °F /  -0.2 °C 18.8 °F /  -7.3 °C 29.84in /  1010.4hPa SSE 0.1mph /  0.2km/h 3mph /  4.8km/h 58.7% 0.00in /  0mm 26 W/m2
15:39 31.6 °F /  -0.2 °C 18.5 °F /  -7.5 °C 29.84in /  1010.4hPa Calm   2mph /  3.2km/h 58% 0.00in /  0mm 30 W/m2
15:44 31.6 °F /  -0.2 °C 18.9 °F /  -7.3 °C 29.85in /  1010.7hPa Calm   2mph /  3.2km/h 59% 0.00in /  0mm 32 W/m2
15:49 31.7 °F /  -0.2 °C 19.1 °F /  -7.2 °C 29.85in /  1010.7hPa Calm   2mph /  3.2km/h 59.2% 0.00in /  0mm 33 W/m2
15:54 31.7 °F /  -0.2 °C 19 °F /  -7.2 °C 29.85in /  1010.7hPa SSE 0.3mph /  0.5km/h 4mph /  6.4km/h 59% 0.00in /  0mm 35 W/m2
15:59 31.7 °F /  -0.2 °C 19 °F /  -7.2 °C 29.85in /  1010.7hPa Calm   4mph /  6.4km/h 59% 0.00in /  0mm 39 W/m2
16:00 31.7 °F /  -0.2 °C 19 °F /  -7.2 °C 29.85in /  1010.7hPa Calm   4mph /  6.4km/h 59% 0.00in /  0mm 35 W/m2
16:09 31.8 °F /  -0.1 °C 19.3 °F /  -7.1 °C 29.85in /  1010.7hPa SSE 0.5mph /  0.8km/h 4mph /  6.4km/h 59.4% 0.00in /  0mm 25 W/m2
16:14 31.7 °F /  -0.2 °C 19 °F /  -7.2 °C 29.85in /  1010.7hPa SSE 0.4mph /  0.6km/h 4mph /  6.4km/h 59% 0.00in /  0mm 19 W/m2
16:19 31.6 °F /  -0.2 °C 19 °F /  -7.2 °C 29.85in /  1010.7hPa Calm   4mph /  6.4km/h 59% 0.00in /  0mm 18 W/m2
16:24 31.5 °F /  -0.3 °C 18.9 °F /  -7.3 °C 29.85in /  1010.7hPa SSE 0.1mph /  0.2km/h 4mph /  6.4km/h 59% 0.00in /  0mm 14 W/m2
16:29 31.4 °F /  -0.3 °C 18.9 °F /  -7.3 °C 29.85in /  1010.7hPa Calm   4mph /  6.4km/h 59.3% 0.00in /  0mm 12 W/m2
16:34 31.3 °F /  -0.4 °C 19.1 °F /  -7.2 °C 29.85in /  1010.7hPa Calm   4mph /  6.4km/h 60% 0.00in /  0mm 9 W/m2
16:39 31.2 °F /  -0.4 °C 19 °F /  -7.2 °C 29.85in /  1010.7hPa Calm     60% 0.00in /  0mm 11 W/m2
16:44 31.2 °F /  -0.4 °C 18.9 °F /  -7.3 °C 29.85in /  1010.7hPa Calm     60% 0.00in /  0mm 11 W/m2
16:49 31.1 °F /  -0.5 °C 19.2 °F /  -7.1 °C 29.85in /  1010.7hPa Calm     61% 0.00in /  0mm 7 W/m2
16:54 31 °F /  -0.6 °C 19.3 °F /  -7.1 °C 29.85in /  1010.7hPa Calm     61.7% 0.00in /  0mm 0 W/m2
16:59 30.8 °F /  -0.7 °C 19.3 °F /  -7.1 °C 29.85in /  1010.7hPa Calm     62% 0.00in /  0mm 0 W/m2
17:04 30.7 °F /  -0.7 °C 19.2 °F /  -7.1 °C 29.85in /  1010.7hPa Calm     62% 0.00in /  0mm 0 W/m2
17:09 30.6 °F /  -0.8 °C 19.1 °F /  -7.2 °C 29.85in /  1010.7hPa Calm     62% 0.00in /  0mm 0 W/m2
17:14 30.5 °F /  -0.8 °C 19 °F /  -7.2 °C 29.84in /  1010.4hPa Calm     62% 0.00in /  0mm 0 W/m2
17:19 30.3 °F /  -0.9 °C 19.2 °F /  -7.1 °C 29.85in /  1010.7hPa Calm     62.7% 0.00in /  0mm 0 W/m2
17:24 30.3 °F /  -0.9 °C 19.2 °F /  -7.1 °C 29.85in /  1010.7hPa Calm     63% 0.00in /  0mm 0 W/m2
17:29 30.3 °F /  -0.9 °C 19.2 °F /  -7.1 °C 29.85in /  1010.7hPa Calm     63% 0.00in /  0mm 0 W/m2
17:34 30.3 °F /  -0.9 °C 19.5 °F /  -6.9 °C 29.86in /  1011.1hPa Calm     63.6% 0.00in /  0mm 0 W/m2
17:39 30.3 °F /  -0.9 °C 19.6 °F /  -6.9 °C 29.86in /  1011.1hPa Calm     64% 0.00in /  0mm 0 W/m2
17:44 30.3 °F /  -0.9 °C 19.6 °F /  -6.9 °C 29.86in /  1011.1hPa Calm     64% 0.00in /  0mm 0 W/m2
17:49 30.3 °F /  -0.9 °C 19.6 °F /  -6.9 °C 29.86in /  1011.1hPa Calm     64% 0.00in /  0mm 0 W/m2
17:54 30.2 °F /  -1 °C 19.5 °F /  -6.9 °C 29.86in /  1011.1hPa Calm     64% 0.00in /  0mm 0 W/m2
17:59 30.3 °F /  -0.9 °C 19.6 °F /  -6.9 °C 29.87in /  1011.4hPa Calm     64% 0.00in /  0mm 0 W/m2
18:04 30.4 °F /  -0.9 °C 19.8 °F /  -6.8 °C 29.87in /  1011.4hPa SSE 0.7mph /  1.1km/h 5mph /  8km/h 64.5% 0.00in /  0mm 0 W/m2
18:09 30.5 °F /  -0.8 °C 20.4 °F /  -6.4 °C 29.87in /  1011.4hPa SSE 0.5mph /  0.8km/h 5mph /  8km/h 65.6% 0.00in /  0mm 0 W/m2
18:14 30.6 °F /  -0.8 °C 20.7 °F /  -6.3 °C 29.87in /  1011.4hPa SSE 1.1mph /  1.8km/h 5mph /  8km/h 66% 0.00in /  0mm 0 W/m2
18:19 30.7 °F /  -0.7 °C 21 °F /  -6.1 °C 29.87in /  1011.4hPa SSE 0.2mph /  0.3km/h 5mph /  8km/h 66.7% 0.00in /  0mm 0 W/m2
18:24 30.8 °F /  -0.7 °C 21.1 °F /  -6.1 °C 29.87in /  1011.4hPa Calm   5mph /  8km/h 67% 0.00in /  0mm 0 W/m2
18:29 30.8 °F /  -0.7 °C 21.2 °F /  -6 °C 29.87in /  1011.4hPa SSE 0.3mph /  0.5km/h 5mph /  8km/h 67% 0.00in /  0mm 0 W/m2
18:34 30.8 °F /  -0.7 °C 21.2 °F /  -6 °C 29.87in /  1011.4hPa Calm   5mph /  8km/h 67% 0.00in /  0mm 0 W/m2
18:39 30.8 °F /  -0.7 °C 21.2 °F /  -6 °C 29.87in /  1011.4hPa Calm     67% 0.00in /  0mm 0 W/m2
18:44 30.8 °F /  -0.7 °C 21.3 °F /  -5.9 °C 29.87in /  1011.4hPa SSE 0.6mph /  1km/h 3mph /  4.8km/h 67.6% 0.00in /  0mm 0 W/m2
18:49 30.7 °F /  -0.7 °C 21.4 °F /  -5.9 °C 29.87in /  1011.4hPa SSE 0.4mph /  0.6km/h 3mph /  4.8km/h 68% 0.00in /  0mm 0 W/m2
18:54 30.7 °F /  -0.7 °C 21.5 °F /  -5.8 °C 29.87in /  1011.4hPa SSE 0.1mph /  0.2km/h 3mph /  4.8km/h 68.4% 0.00in /  0mm 0 W/m2
18:59 30.7 °F /  -0.7 °C 21.8 °F /  -5.7 °C 29.87in /  1011.4hPa Calm   3mph /  4.8km/h 69% 0.00in /  0mm 0 W/m2
19:04 30.8 °F /  -0.7 °C 21.8 °F /  -5.7 °C 29.87in /  1011.4hPa Calm   3mph /  4.8km/h 69% 0.00in /  0mm 0 W/m2
19:09 30.8 °F /  -0.7 °C 21.9 °F /  -5.6 °C 29.87in /  1011.4hPa SSE 0.1mph /  0.2km/h 3mph /  4.8km/h 69.1% 0.00in /  0mm 0 W/m2
19:14 30.8 °F /  -0.7 °C 21.9 °F /  -5.6 °C 29.87in /  1011.4hPa SSE 0.5mph /  0.8km/h 4mph /  6.4km/h 69% 0.00in /  0mm 0 W/m2
19:19 30.9 °F /  -0.6 °C 21.9 °F /  -5.6 °C 29.87in /  1011.4hPa Calm   4mph /  6.4km/h 69% 0.00in /  0mm 0 W/m2
19:24 30.8 °F /  -0.7 °C 22.1 °F /  -5.5 °C 29.87in /  1011.4hPa Calm   4mph /  6.4km/h 69.7% 0.00in /  0mm 0 W/m2
19:29 30.8 °F /  -0.7 °C 21.9 °F /  -5.6 °C 29.87in /  1011.4hPa South 0.3mph /  0.5km/h 4mph /  6.4km/h 69.2% 0.00in /  0mm 0 W/m2
19:34 30.8 °F /  -0.7 °C 21.9 °F /  -5.6 °C 29.87in /  1011.4hPa Calm   4mph /  6.4km/h 69.2% 0.00in /  0mm 0 W/m2
19:39 30.8 °F /  -0.7 °C 22 °F /  -5.6 °C 29.87in /  1011.4hPa Calm   1mph /  1.6km/h 69.3% 0.00in /  0mm 0 W/m2
19:44 30.8 °F /  -0.7 °C 22.2 °F /  -5.4 °C 29.87in /  1011.4hPa Calm   1mph /  1.6km/h 70% 0.00in /  0mm 0 W/m2
19:49 30.8 °F /  -0.7 °C 22 °F /  -5.6 °C 29.87in /  1011.4hPa South 0.2mph /  0.3km/h 3mph /  4.8km/h 69.3% 0.00in /  0mm 0 W/m2
19:54 30.8 °F /  -0.7 °C 22 °F /  -5.6 °C 29.87in /  1011.4hPa South 0.5mph /  0.8km/h 4mph /  6.4km/h 69.4% 0.00in /  0mm 0 W/m2
19:59 30.7 °F /  -0.7 °C 22.1 °F /  -5.5 °C 29.87in /  1011.4hPa South 0.1mph /  0.2km/h 4mph /  6.4km/h 69.9% 0.00in /  0mm 0 W/m2
20:00 30.7 °F /  -0.7 °C 22.1 °F /  -5.5 °C 29.87in /  1011.4hPa Calm   4mph /  6.4km/h 70% 0.00in /  0mm 0 W/m2
20:09 30.7 °F /  -0.7 °C 22.1 °F /  -5.5 °C 29.87in /  1011.4hPa Calm     70% 0.00in /  0mm 0 W/m2
20:14 30.7 °F /  -0.7 °C 22.1 °F /  -5.5 °C 29.87in /  1011.4hPa Calm   2mph /  3.2km/h 70.2% 0.00in /  0mm 0 W/m2
20:19 30.6 °F /  -0.8 °C 22.2 °F /  -5.4 °C 29.86in /  1011.1hPa South 0.1mph /  0.2km/h 2mph /  3.2km/h 70.6% 0.00in /  0mm 0 W/m2
20:24 30.6 °F /  -0.8 °C 22.3 °F /  -5.4 °C 29.87in /  1011.4hPa South 0.2mph /  0.3km/h 3mph /  4.8km/h 71% 0.00in /  0mm 0 W/m2
20:29 30.6 °F /  -0.8 °C 22.1 °F /  -5.5 °C 29.86in /  1011.1hPa Calm   3mph /  4.8km/h 70.2% 0.00in /  0mm 0 W/m2
20:34 30.6 °F /  -0.8 °C 22.2 °F /  -5.4 °C 29.86in /  1011.1hPa Calm   3mph /  4.8km/h 70.7% 0.00in /  0mm 0 W/m2
20:39 30.5 °F /  -0.8 °C 22.2 °F /  -5.4 °C 29.86in /  1011.1hPa Calm     71% 0.00in /  0mm 0 W/m2
20:44 30.5 °F /  -0.8 °C 22.2 °F /  -5.4 °C 29.86in /  1011.1hPa Calm     71% 0.00in /  0mm 0 W/m2
20:49 30.5 °F /  -0.8 °C 22.2 °F /  -5.4 °C 29.86in /  1011.1hPa Calm     71% 0.00in /  0mm 0 W/m2
20:54 30.4 °F /  -0.9 °C 22.2 °F /  -5.4 °C 29.86in /  1011.1hPa Calm     71% 0.00in /  0mm 0 W/m2
20:59 30.4 °F /  -0.9 °C 22.1 °F /  -5.5 °C 29.86in /  1011.1hPa Calm     71% 0.00in /  0mm 0 W/m2
21:04 30.4 °F /  -0.9 °C 22.1 °F /  -5.5 °C 29.86in /  1011.1hPa Calm     71% 0.00in /  0mm 0 W/m2
21:09 30.4 °F /  -0.9 °C 22.3 °F /  -5.4 °C 29.86in /  1011.1hPa Calm     71.6% 0.00in /  0mm 0 W/m2
21:14 30.3 °F /  -0.9 °C 22.4 °F /  -5.3 °C 29.86in /  1011.1hPa Calm     72% 0.00in /  0mm 0 W/m2
21:19 30.4 °F /  -0.9 °C 22.4 °F /  -5.3 °C 29.86in /  1011.1hPa Calm     72% 0.00in /  0mm 0 W/m2
21:24 30.4 °F /  -0.9 °C 22.5 °F /  -5.3 °C 29.86in /  1011.1hPa Calm     72% 0.00in /  0mm 0 W/m2
21:29 30.4 °F /  -0.9 °C 22.7 °F /  -5.2 °C 29.86in /  1011.1hPa Calm     72.6% 0.00in /  0mm 0 W/m2
21:34 30.4 °F /  -0.9 °C 22.8 °F /  -5.1 °C 29.87in /  1011.4hPa Calm     73% 0.00in /  0mm 0 W/m2
21:39 30.4 °F /  -0.9 °C 22.8 °F /  -5.1 °C 29.87in /  1011.4hPa Calm     73% 0.00in /  0mm 0 W/m2
21:44 30.5 °F /  -0.8 °C 23 °F /  -5 °C 29.87in /  1011.4hPa South 0.1mph /  0.2km/h 2mph /  3.2km/h 73.4% 0.00in /  0mm 0 W/m2
21:49 30.5 °F /  -0.8 °C 23.4 °F /  -4.8 °C 29.88in /  1011.7hPa South 0.2mph /  0.3km/h 3mph /  4.8km/h 74.5% 0.00in /  0mm 0 W/m2
21:54 30.5 °F /  -0.8 °C 23.7 °F /  -4.6 °C 29.88in /  1011.7hPa Calm   3mph /  4.8km/h 75.7% 0.00in /  0mm 0 W/m2
21:59 30.4 °F /  -0.9 °C 23.9 °F /  -4.5 °C 29.88in /  1011.7hPa Calm   3mph /  4.8km/h 76.5% 0.00in /  0mm 0 W/m2
22:04 30.4 °F /  -0.9 °C 24.2 °F /  -4.3 °C 29.88in /  1011.7hPa Calm   3mph /  4.8km/h 77.7% 0.00in /  0mm 0 W/m2
22:09 30.3 °F /  -0.9 °C 24.4 °F /  -4.2 °C 29.88in /  1011.7hPa Calm     78.6% 0.00in /  0mm 0 W/m2
22:14 30.2 °F /  -1 °C 24.6 °F /  -4.1 °C 29.88in /  1011.7hPa Calm     79.6% 0.00in /  0mm 0 W/m2
22:19 30.1 °F /  -1.1 °C 24.9 °F /  -3.9 °C 29.88in /  1011.7hPa Calm     80.7% 0.00in /  0mm 0 W/m2
22:24 29.9 °F /  -1.2 °C 24.9 °F /  -3.9 °C 29.88in /  1011.7hPa Calm     81.5% 0.00in /  0mm 0 W/m2
22:29 29.7 °F /  -1.3 °C 25 °F /  -3.9 °C 29.88in /  1011.7hPa Calm     82.3% 0.00in /  0mm 0 W/m2
22:34 29.6 °F /  -1.3 °C 25.1 °F /  -3.8 °C 29.87in /  1011.4hPa Calm     83.3% 0.00in /  0mm 0 W/m2
22:39 29.4 °F /  -1.4 °C 25.2 °F /  -3.8 °C 29.87in /  1011.4hPa Calm     84% 0.00in /  0mm 0 W/m2
22:44 29.4 °F /  -1.4 °C 25.3 °F /  -3.7 °C 29.87in /  1011.4hPa Calm     84.5% 0.00in /  0mm 0 W/m2
22:49 29.3 °F /  -1.5 °C 25.4 °F /  -3.7 °C 29.87in /  1011.4hPa Calm     85.1% 0.00in /  0mm 0 W/m2
22:54 29.2 °F /  -1.6 °C 25.5 °F /  -3.6 °C 29.87in /  1011.4hPa Calm     85.8% 0.00in /  0mm 0 W/m2
22:59 29.1 °F /  -1.6 °C 25.5 °F /  -3.6 °C 29.87in /  1011.4hPa Calm     86% 0.00in /  0mm 0 W/m2
23:00 29.1 °F /  -1.6 °C 25.4 °F /  -3.7 °C 29.87in /  1011.4hPa Calm     86% 0.00in /  0mm 0 W/m2
23:09 29 °F /  -1.7 °C 25.6 °F /  -3.6 °C 29.87in /  1011.4hPa Calm     87% 0.00in /  0mm 0 W/m2
23:14 28.9 °F /  -1.7 °C 25.8 °F /  -3.4 °C 29.86in /  1011.1hPa Calm     87.8% 0.00in /  0mm 0 W/m2
23:19 28.9 °F /  -1.7 °C 25.8 °F /  -3.4 °C 29.86in /  1011.1hPa Calm     88% 0.00in /  0mm 0 W/m2
23:24 28.9 °F /  -1.7 °C 25.8 °F /  -3.4 °C 29.86in /  1011.1hPa Calm     88.1% 0.00in /  0mm 0 W/m2
23:29 28.9 °F /  -1.7 °C 26.1 °F /  -3.3 °C 29.86in /  1011.1hPa Calm     89% 0.00in /  0mm 0 W/m2
23:34 28.9 °F /  -1.7 °C 26.1 °F /  -3.3 °C 29.86in /  1011.1hPa Calm     89% 0.00in /  0mm 0 W/m2
23:39 28.9 °F /  -1.7 °C 26.1 °F /  -3.3 °C 29.86in /  1011.1hPa Calm     89% 0.00in /  0mm 0 W/m2
23:44 28.8 °F /  -1.8 °C 26 °F /  -3.3 °C 29.86in /  1011.1hPa Calm     89% 0.00in /  0mm 0 W/m2
23:49 28.8 °F /  -1.8 °C 26 °F /  -3.3 °C 29.85in /  1010.7hPa Calm     89.1% 0.00in /  0mm 0 W/m2
23:54 28.8 °F /  -1.8 °C 26.2 °F /  -3.2 °C 29.85in /  1010.7hPa Calm     90% 0.00in /  0mm 0 W/m2
23:59 28.8 °F /  -1.8 °C 26.2 °F /  -3.2 °C 29.85in /  1010.7hPa Calm     90% 0.00in /  0mm 0 W/m2
Hartford County Weather
Compliments of Weather Underground - 2 mb